Time;durP1;ratioP1;P1;durP2;ratioP2;P2;SDS_P1;SDS_P2;PMS_P1;PMS_P2;Temp;Humidity;BMP_temperature;BMP_pressure;BME280_temperature;BME280_humidity;BME280_pressure;Samples;Min_cycle;Max_cycle;Signal;HPM_P1;HPM_P2
2024/04/09 00:00:42;;;;;;;12.73;3.47;;;;;;;15.50;50.03;92265.88;2027105;70;20255;-75
2024/04/09 00:03:08;;;;;;;17.73;3.70;;;;;;;15.74;49.01;92268.88;2027735;70;20252;-74
2024/04/09 00:05:39;;;;;;;12.57;3.53;;;;;;;15.68;49.77;92246.69;2028275;70;20165;-77
2024/04/09 00:08:10;;;;;;;19.50;3.78;;;;;;;15.43;49.80;92256.41;2028492;70;20152;-75
2024/04/09 00:10:37;;;;;;;15.35;3.80;;;;;;;15.21;50.69;92258.44;2028239;70;20203;-75
2024/04/09 00:13:06;;;;;;;11.18;4.05;;;;;;;15.07;51.27;92255.09;2028299;70;20230;-75
2024/04/09 00:15:36;;;;;;;15.45;3.28;;;;;;;15.48;50.23;92246.66;2024609;70;20456;-76
2024/04/09 00:18:11;;;;;;;18.52;3.65;;;;;;;15.56;50.35;92234.88;2028260;70;20684;-77
2024/04/09 00:20:44;;;;;;;12.57;4.07;;;;;;;15.13;51.24;92247.53;2024843;70;20183;-73
2024/04/09 00:23:16;;;;;;;17.90;3.70;;;;;;;15.44;50.44;92235.19;2028111;70;20140;-72
2024/04/09 00:25:44;;;;;;;18.33;4.10;;;;;;;15.62;50.03;92232.25;2028149;70;20224;-73
2024/04/09 00:28:11;;;;;;;19.73;4.38;;;;;;;14.63;53.08;92238.59;2027975;70;20160;-72
2024/04/09 00:30:37;;;;;;;18.88;4.10;;;;;;;15.17;51.43;92232.81;2028072;70;20602;-73
2024/04/09 00:33:03;;;;;;;19.30;4.43;;;;;;;15.45;50.65;92222.47;2027921;70;20671;-70
2024/04/09 00:35:31;;;;;;;16.13;4.30;;;;;;;14.63;52.79;92221.59;2028052;70;20537;-70
2024/04/09 00:37:56;;;;;;;15.27;3.97;;;;;;;15.12;51.85;92231.94;2027986;70;20180;-69
2024/04/09 00:40:26;;;;;;;12.18;3.90;;;;;;;15.41;50.97;92232.94;2028179;70;20148;-70
2024/04/09 00:42:53;;;;;;;11.55;3.78;;;;;;;14.76;52.43;92236.22;2027955;70;20175;-71
2024/04/09 00:45:22;;;;;;;16.80;3.88;;;;;;;15.13;51.03;92218.47;2028099;70;20233;-69
2024/04/09 00:47:49;;;;;;;16.05;3.60;;;;;;;15.39;51.13;92224.34;2027999;70;20549;-71
2024/04/09 00:50:19;;;;;;;14.02;4.07;;;;;;;14.68;52.39;92223.19;2028000;70;20255;-71
2024/04/09 00:52:46;;;;;;;16.88;3.60;;;;;;;15.30;51.26;92214.09;2028218;70;20606;-71
2024/04/09 00:55:14;;;;;;;16.38;4.60;;;;;;;15.47;50.42;92213.28;2024629;70;20253;-71
2024/04/09 00:57:41;;;;;;;18.38;3.85;;;;;;;15.16;51.31;92217.88;2027992;70;20152;-73
2024/04/09 01:00:12;;;;;;;13.82;3.97;;;;;;;15.40;51.85;92212.38;2028000;70;20305;-70
2024/04/09 01:02:38;;;;;;;14.85;4.30;;;;;;;14.49;53.24;92218.94;2028146;70;20294;-71
2024/04/09 01:05:05;;;;;;;16.83;4.28;;;;;;;15.08;51.84;92211.22;2024567;70;20201;-71
2024/04/09 01:07:32;;;;;;;19.85;3.83;;;;;;;15.28;51.92;92205.53;2028143;70;20201;-72
2024/04/09 01:09:58;;;;;;;16.90;3.88;;;;;;;14.79;53.17;92201.63;2028108;70;20165;-75
2024/04/09 01:12:24;;;;;;;16.17;3.50;;;;;;;14.95;53.01;92201.53;2028042;70;20271;-69
2024/04/09 01:14:50;;;;;;;13.98;3.78;;;;;;;15.30;51.46;92203.47;2021518;70;20156;-75
2024/04/09 01:17:16;;;;;;;12.60;3.67;;;;;;;15.05;52.38;92204.72;2028030;70;20241;-76
2024/04/09 01:19:42;;;;;;;10.93;3.58;;;;;;;15.14;52.33;92197.25;2028071;70;20265;-75
2024/04/09 01:22:08;;;;;;;15.27;4.25;;;;;;;14.43;53.07;92162.06;2028463;70;20141;-77
2024/04/09 01:24:34;;;;;;;14.13;3.58;;;;;;;15.15;51.88;92213.59;2028448;70;20160;-75
2024/04/09 01:27:05;;;;;;;11.65;3.30;;;;;;;15.22;52.13;92194.69;2028441;70;20141;-76
2024/04/09 01:29:32;;;;;;;18.40;3.60;;;;;;;15.30;51.74;92206.31;2028050;70;20151;-74
2024/04/09 01:31:58;;;;;;;11.68;3.58;;;;;;;14.87;52.88;92229.56;2023778;71;20224;-77
2024/04/09 01:34:23;;;;;;;11.70;3.78;;;;;;;15.14;52.63;92208.59;2023894;71;20610;-71
2024/04/09 01:36:49;;;;;;;13.82;3.80;;;;;;;15.18;52.56;92220.06;2024232;71;20153;-73
2024/04/09 01:39:15;;;;;;;15.82;4.03;;;;;;;15.33;51.56;92226.97;2023779;71;20145;-69
2024/04/09 01:41:41;;;;;;;15.25;4.07;;;;;;;14.17;55.07;92214.81;2024637;71;20157;-78
2024/04/09 01:44:10;;;;;;;12.02;3.83;;;;;;;14.88;52.84;92225.34;2024647;70;20184;-73
2024/04/09 01:46:37;;;;;;;10.55;3.65;;;;;;;15.09;52.15;92213.38;2025276;70;20651;-78
2024/04/09 01:49:04;;;;;;;11.15;3.80;;;;;;;15.12;52.93;92205.66;2024508;70;20164;-71
2024/04/09 01:51:30;;;;;;;22.77;4.25;;;;;;;14.59;53.49;92200.88;2024438;70;20561;-71
2024/04/09 01:53:55;;;;;;;17.75;4.00;;;;;;;14.81;52.92;92196.06;2024449;71;20164;-72
2024/04/09 01:56:21;;;;;;;8.65;3.50;;;;;;;15.09;51.90;92192.81;2024417;70;20149;-69
2024/04/09 01:58:47;;;;;;;12.70;4.20;;;;;;;15.24;52.12;92191.94;2024024;70;20621;-76
2024/04/09 02:01:14;;;;;;;13.13;3.47;;;;;;;14.98;52.63;92195.28;2024031;71;20248;-73
2024/04/09 02:03:40;;;;;;;13.13;3.63;;;;;;;14.99;52.20;92187.50;2024876;71;20145;-72
2024/04/09 02:06:07;;;;;;;17.50;4.10;;;;;;;14.72;53.16;92191.47;2024669;70;20184;-71
2024/04/09 02:08:34;;;;;;;11.85;3.75;;;;;;;14.96;53.05;92195.19;2024301;70;20250;-73
2024/04/09 02:10:59;;;;;;;15.68;4.00;;;;;;;14.76;53.36;92194.47;2024446;70;20172;-69
2024/04/09 02:13:26;;;;;;;14.63;4.10;;;;;;;14.95;53.37;92178.84;2024209;70;20145;-73
2024/04/09 02:15:52;;;;;;;16.08;3.85;;;;;;;15.18;52.12;92180.38;2024350;70;20259;-75
2024/04/09 02:18:17;;;;;;;15.05;4.35;;;;;;;14.31;55.08;92189.16;2023853;71;20149;-75
2024/04/09 02:20:44;;;;;;;13.82;3.75;;;;;;;14.72;54.48;92180.13;2023916;71;20219;-75
2024/04/09 02:23:11;;;;;;;17.83;3.63;;;;;;;14.94;52.96;92185.91;2024338;71;20247;-70
2024/04/09 02:25:40;;;;;;;12.93;3.33;;;;;;;15.02;53.40;92186.19;2024344;70;20173;-73
2024/04/09 02:28:06;;;;;;;13.85;3.40;;;;;;;15.11;52.48;92181.53;2024326;70;20683;-71
2024/04/09 02:30:33;;;;;;;12.77;3.92;;;;;;;14.60;53.35;92174.72;2025382;70;20156;-73
2024/04/09 02:32:58;;;;;;;16.85;3.60;;;;;;;14.92;53.37;92185.81;2028063;70;20612;-69
2024/04/09 02:35:24;;;;;;;13.07;3.50;;;;;;;15.08;52.37;92183.59;2027945;70;20247;-71
2024/04/09 02:37:50;;;;;;;15.93;3.72;;;;;;;14.49;55.32;92189.91;2024559;70;20252;-71
2024/04/09 02:40:16;;;;;;;11.18;4.00;;;;;;;14.68;54.73;92177.88;2024483;70;20583;-71
2024/04/09 02:42:43;;;;;;;12.43;3.67;;;;;;;14.90;53.89;92189.31;2027984;70;20227;-68
2024/04/09 02:45:09;;;;;;;13.07;4.05;;;;;;;14.70;54.09;92192.09;2027922;70;20167;-70
2024/04/09 02:47:35;;;;;;;11.75;3.70;;;;;;;14.76;54.19;92196.56;2028736;70;20157;-71
2024/04/09 02:50:02;;;;;;;14.07;4.15;;;;;;;14.92;52.97;92182.97;2028235;70;20149;-74
2024/04/09 02:52:27;;;;;;;15.00;4.00;;;;;;;14.72;53.72;92188.63;2024712;70;20181;-77
2024/04/09 02:54:53;;;;;;;14.68;4.03;;;;;;;14.89;53.69;92198.44;2028411;70;20579;-70
2024/04/09 02:57:19;;;;;;;16.42;3.80;;;;;;;14.96;52.99;92188.81;2024828;70;20141;-70
2024/04/09 02:59:45;;;;;;;12.25;3.88;;;;;;;14.90;53.36;92189.31;2028170;70;20236;-70
2024/04/09 03:02:11;;;;;;;15.23;3.88;;;;;;;14.74;53.44;92171.69;2028610;70;20248;-75
2024/04/09 03:04:36;;;;;;;18.70;3.78;;;;;;;14.83;52.96;92181.22;2028781;70;20173;-76
2024/04/09 03:07:03;;;;;;;12.95;4.18;;;;;;;14.55;54.31;92190.13;2028440;70;20157;-76
2024/04/09 03:09:30;;;;;;;10.38;4.00;;;;;;;14.65;54.19;92179.16;2028540;70;20244;-77
2024/04/09 03:11:56;;;;;;;15.82;4.05;;;;;;;14.85;53.31;92182.03;2025046;70;20656;-78
2024/04/09 03:14:23;;;;;;;15.80;4.07;;;;;;;14.88;53.25;92175.06;2028797;70;20240;-71
2024/04/09 03:16:50;;;;;;;11.75;3.85;;;;;;;14.53;54.04;92178.00;2028564;70;20169;-76
2024/04/09 03:19:18;;;;;;;15.95;4.07;;;;;;;14.64;53.61;92186.22;2028415;70;20229;-77
2024/04/09 03:21:44;;;;;;;15.23;4.00;;;;;;;14.67;54.02;92193.44;2028521;70;20594;-78
2024/04/09 03:24:10;;;;;;;14.50;4.35;;;;;;;14.77;54.38;92192.34;2024825;70;20155;-77
2024/04/09 03:26:37;;;;;;;19.52;4.10;;;;;;;14.86;54.11;92189.16;2028206;70;20260;-76
2024/04/09 03:29:03;;;;;;;10.90;3.65;;;;;;;14.87;53.08;92190.63;2028081;70;20145;-71
2024/04/09 03:31:28;;;;;;;13.85;3.83;;;;;;;14.83;53.06;92187.63;2028430;70;20156;-73
2024/04/09 03:33:54;;;;;;;17.77;3.80;;;;;;;14.89;53.57;92181.44;2028498;70;20171;-74
2024/04/09 03:36:21;;;;;;;19.80;4.20;;;;;;;14.40;54.39;92173.94;2028620;70;20191;-72
2024/04/09 03:38:47;;;;;;;18.52;4.47;;;;;;;14.23;55.16;92181.81;2028494;70;20157;-74
2024/04/09 03:41:12;;;;;;;16.40;5.57;;;;;;;14.55;54.85;92163.91;2028093;70;20160;-75
2024/04/09 03:43:38;;;;;;;13.85;4.47;;;;;;;14.42;54.10;92166.25;2024786;70;20275;-72
2024/04/09 03:46:14;;;;;;;24.23;10.18;;;;;;;14.35;55.05;92147.59;2028595;70;20583;-72
2024/04/09 03:48:45;;;;;;;21.63;8.85;;;;;;;14.57;54.87;92149.81;2028427;70;20148;-68
2024/04/09 03:51:12;;;;;;;20.42;7.90;;;;;;;14.11;55.63;92127.56;2028367;70;20183;-71
2024/04/09 03:53:38;;;;;;;17.02;7.65;;;;;;;14.23;55.90;92135.78;2024938;70;20260;-74
2024/04/09 03:56:09;;;;;;;15.43;4.97;;;;;;;13.73;57.08;92144.47;2024920;70;20167;-75
2024/04/09 03:58:39;;;;;;;16.38;5.05;;;;;;;14.05;55.89;92113.16;2028105;70;20289;-74
2024/04/09 04:01:08;;;;;;;13.05;4.43;;;;;;;14.25;54.34;92147.22;2028298;70;20604;-77
2024/04/09 04:03:36;;;;;;;17.83;4.45;;;;;;;14.10;55.12;92134.59;2028308;70;20333;-77
2024/04/09 04:06:02;;;;;;;14.45;4.10;;;;;;;14.01;56.16;92146.25;2028450;70;20607;-78
2024/04/09 04:08:30;;;;;;;14.02;5.03;;;;;;;14.09;55.68;92133.13;2028618;70;20152;-73
2024/04/09 04:11:01;;;;;;;21.65;6.70;;;;;;;14.03;56.13;92144.22;2028511;70;20236;-74
2024/04/09 04:13:29;;;;;;;16.77;5.75;;;;;;;14.35;54.80;92149.69;2028182;70;20272;-76
2024/04/09 04:16:04;;;;;;;15.63;5.80;;;;;;;14.49;53.63;92156.66;2028366;70;20575;-78
2024/04/09 04:18:32;;;;;;;17.05;6.38;;;;;;;14.48;55.33;92151.63;2028382;70;20156;-77
2024/04/09 04:20:58;;;;;;;17.42;6.45;;;;;;;14.40;54.46;92154.84;2028362;70;20595;-77
2024/04/09 04:23:24;;;;;;;18.10;5.50;;;;;;;14.41;55.11;92141.41;2028391;70;20242;-78
2024/04/09 04:26:08;;;;;;;14.77;5.18;;;;;;;14.20;55.33;92148.41;2028551;70;20141;-72
2024/04/09 04:28:35;;;;;;;16.35;5.30;;;;;;;13.81;57.04;92149.72;2028278;70;20140;-71
2024/04/09 04:31:04;;;;;;;16.95;5.18;;;;;;;14.07;55.87;92124.59;2024823;70;20171;-74
2024/04/09 04:33:30;;;;;;;13.88;4.40;;;;;;;14.34;55.20;92134.81;2028410;70;20506;-70
2024/04/09 04:35:55;;;;;;;90.22;29.35;;;;;;;13.64;57.13;92147.63;2025142;70;20559;-76
2024/04/09 04:38:21;;;;;;;24.02;7.60;;;;;;;13.76;57.05;92147.38;2028520;70;20143;-76
2024/04/09 04:40:47;;;;;;;20.13;5.55;;;;;;;14.16;55.35;92132.00;2028502;70;20244;-77
2024/04/09 04:43:16;;;;;;;33.10;11.25;;;;;;;14.32;55.75;92142.50;2028388;70;20747;-77
2024/04/09 04:45:43;;;;;;;43.13;12.95;;;;;;;14.14;55.26;92145.34;2028370;70;20251;-70
2024/04/09 04:48:09;;;;;;;26.90;7.80;;;;;;;13.68;57.08;92142.13;2028297;70;20632;-77
2024/04/09 04:50:36;;;;;;;25.52;8.95;;;;;;;14.06;55.50;92145.75;2024751;70;20156;-70
2024/04/09 04:53:02;;;;;;;31.33;8.18;;;;;;;14.07;56.65;92135.91;2028408;70;20217;-78
2024/04/09 04:55:29;;;;;;;25.13;7.72;;;;;;;14.12;56.05;92139.63;2028322;70;20157;-75
2024/04/09 04:57:55;;;;;;;23.60;6.57;;;;;;;14.27;54.38;92133.13;2028198;70;20190;-75
2024/04/09 05:00:21;;;;;;;19.13;7.40;;;;;;;14.32;55.67;92136.81;2028207;70;20156;-74
2024/04/09 05:02:48;;;;;;;22.45;7.28;;;;;;;14.33;55.89;92152.44;2028399;70;20210;-75
2024/04/09 05:05:14;;;;;;;31.08;9.30;;;;;;;13.56;57.48;92150.09;2024897;70;20276;-71
2024/04/09 05:07:40;;;;;;;22.42;6.32;;;;;;;13.97;55.93;92129.81;2028307;70;20173;-74
2024/04/09 05:10:12;;;;;;;20.05;6.88;;;;;;;13.78;56.37;92128.38;2028059;70;20687;-76
2024/04/09 05:12:42;;;;;;;17.45;6.32;;;;;;;13.97;56.85;92124.16;2028218;70;20232;-76
2024/04/09 05:15:09;;;;;;;26.95;8.40;;;;;;;13.93;56.88;92132.53;2028167;70;20172;-74
2024/04/09 05:17:35;;;;;;;29.52;8.18;;;;;;;14.15;56.60;92124.88;2027966;70;20163;-74
2024/04/09 05:20:05;;;;;;;14.98;7.00;;;;;;;14.31;55.72;92129.72;2028099;70;20165;-74
2024/04/09 05:22:30;;;;;;;22.20;7.18;;;;;;;14.30;56.15;92137.50;2028388;70;20232;-77
2024/04/09 05:24:56;;;;;;;19.50;6.43;;;;;;;14.36;56.68;92140.53;2028096;70;20525;-74
2024/04/09 05:27:22;;;;;;;24.30;7.95;;;;;;;14.16;57.28;92139.78;2028454;70;20149;-75
2024/04/09 05:29:48;;;;;;;26.90;8.27;;;;;;;14.14;57.04;92145.34;2024362;70;20172;-74
2024/04/09 05:32:16;;;;;;;25.25;8.65;;;;;;;14.27;57.35;92160.69;2028233;70;20157;-74
2024/04/09 05:34:42;;;;;;;20.35;8.00;;;;;;;14.30;55.97;92157.31;2024624;70;20519;-72
2024/04/09 05:37:09;;;;;;;20.95;7.32;;;;;;;14.37;56.54;92150.47;2021999;70;20171;-70
2024/04/09 05:39:35;;;;;;;29.10;8.27;;;;;;;14.60;54.48;92160.56;2028175;70;20149;-71
2024/04/09 05:42:01;;;;;;;25.70;8.20;;;;;;;14.15;57.05;92160.94;2028123;70;20153;-77
2024/04/09 05:44:26;;;;;;;21.55;7.88;;;;;;;14.47;56.12;92156.53;2028086;70;20137;-77
2024/04/09 05:46:52;;;;;;;23.02;7.30;;;;;;;14.53;57.09;92164.56;2028215;70;20152;-72
2024/04/09 05:49:22;;;;;;;20.80;7.05;;;;;;;14.63;56.83;92147.94;2028146;70;20192;-69
2024/04/09 05:51:49;;;;;;;20.50;7.60;;;;;;;14.52;57.05;92148.22;2024462;70;20175;-75
2024/04/09 05:54:18;;;;;;;27.95;8.68;;;;;;;14.19;58.16;92149.78;2028037;70;20165;-75
2024/04/09 05:56:47;;;;;;;27.33;8.63;;;;;;;14.49;58.18;92156.66;2028194;70;20176;-77
2024/04/09 05:59:13;;;;;;;21.10;8.63;;;;;;;14.56;58.27;92157.59;2024411;70;20164;-72
2024/04/09 06:01:39;;;;;;;29.65;9.13;;;;;;;14.72;57.19;92158.19;2028039;70;20590;-77
2024/04/09 06:04:05;;;;;;;26.25;8.55;;;;;;;14.70;58.15;92155.28;2024720;70;20156;-76
2024/04/09 06:06:31;;;;;;;24.05;8.52;;;;;;;14.23;58.55;92158.44;2028668;70;20163;-74
2024/04/09 06:08:59;;;;;;;25.90;8.90;;;;;;;14.47;58.04;92159.34;2029086;70;20155;-75
2024/04/09 06:11:26;;;;;;;28.70;9.20;;;;;;;14.78;57.27;92149.19;2028731;70;20235;-72
2024/04/09 06:13:52;;;;;;;25.90;8.05;;;;;;;14.54;57.74;92149.03;2028785;70;20168;-69
2024/04/09 06:16:18;;;;;;;40.85;10.68;;;;;;;14.24;58.88;92171.22;2028147;70;20248;-78
2024/04/09 06:18:44;;;;;;;32.25;9.63;;;;;;;14.69;58.09;92170.09;2028143;70;20163;-78
2024/04/09 06:21:10;;;;;;;34.45;9.60;;;;;;;14.95;56.96;92150.50;2028518;70;20550;-73
2024/04/09 06:23:35;;;;;;;32.03;9.68;;;;;;;15.06;56.05;92148.75;2028668;70;20132;-73
2024/04/09 06:26:02;;;;;;;34.15;9.88;;;;;;;15.17;57.49;92145.63;2028456;70;20145;-76
2024/04/09 06:28:28;;;;;;;28.98;9.25;;;;;;;15.29;57.51;92145.31;2028346;70;20626;-74
2024/04/09 06:30:53;;;;;;;24.90;8.45;;;;;;;15.52;57.50;92150.38;2024803;70;20195;-76
2024/04/09 06:33:19;;;;;;;24.95;7.32;;;;;;;15.50;55.58;92141.06;2025330;70;20189;-73
2024/04/09 06:35:45;;;;;;;22.75;7.88;;;;;;;15.29;56.63;92161.59;2025112;70;20156;-76
2024/04/09 06:38:11;;;;;;;27.10;7.05;;;;;;;15.29;56.16;92162.31;2028643;70;20288;-70
2024/04/09 06:40:36;;;;;;;30.55;7.43;;;;;;;15.60;56.60;92158.44;2028332;70;20263;-72
2024/04/09 06:43:03;;;;;;;27.55;7.40;;;;;;;15.39;56.48;92162.69;2028486;70;20511;-72
2024/04/09 06:45:28;;;;;;;25.00;7.78;;;;;;;15.33;55.61;92170.97;2028409;70;20594;-69
2024/04/09 06:47:54;;;;;;;25.35;7.60;;;;;;;15.71;56.10;92177.28;2028595;70;20205;-75
2024/04/09 06:50:21;;;;;;;24.92;6.78;;;;;;;15.91;55.77;92160.19;2028389;70;20180;-74
2024/04/09 06:52:47;;;;;;;32.35;7.43;;;;;;;16.03;55.92;92159.84;2028515;70;20264;-74
2024/04/09 06:55:12;;;;;;;24.40;7.43;;;;;;;16.22;55.36;92167.56;2024882;70;20193;-70
2024/04/09 06:57:38;;;;;;;41.22;8.30;;;;;;;15.30;57.57;92175.13;2028339;70;20176;-74
2024/04/09 07:00:06;;;;;;;46.30;8.73;;;;;;;15.74;56.06;92178.06;2028317;70;20229;-71
2024/04/09 07:02:33;;;;;;;45.35;9.18;;;;;;;16.25;54.16;92176.88;2024932;70;20559;-73
2024/04/09 07:04:59;;;;;;;48.20;8.48;;;;;;;16.34;53.86;92169.34;2028611;70;20161;-71
2024/04/09 07:07:25;;;;;;;52.78;9.25;;;;;;;15.89;55.74;92167.91;2028488;70;20149;-74
2024/04/09 07:09:52;;;;;;;46.20;9.63;;;;;;;16.26;55.04;92178.31;2028584;70;20228;-73
2024/04/09 07:12:18;;;;;;;37.67;8.30;;;;;;;16.27;57.62;92182.63;2028507;70;20188;-73
2024/04/09 07:14:45;;;;;;;31.38;7.53;;;;;;;16.41;56.48;92180.22;2024784;70;20147;-73
2024/04/09 07:17:10;;;;;;;36.92;8.00;;;;;;;16.67;55.27;92168.91;2028641;70;20145;-71
2024/04/09 07:19:36;;;;;;;39.42;8.05;;;;;;;16.02;56.27;92173.31;2028667;70;20539;-77
2024/04/09 07:22:02;;;;;;;39.92;8.25;;;;;;;16.20;55.73;92187.38;2028598;70;20237;-75
2024/04/09 07:24:28;;;;;;;36.08;8.35;;;;;;;16.71;56.09;92182.53;2028588;70;20184;-76
2024/04/09 07:26:53;;;;;;;33.17;7.55;;;;;;;17.13;55.78;92183.06;2028516;70;20145;-76
2024/04/09 07:29:19;;;;;;;27.05;7.43;;;;;;;17.42;53.50;92181.75;2024688;70;20522;-74
2024/04/09 07:31:45;;;;;;;29.20;7.75;;;;;;;17.57;52.90;92179.28;2022122;70;20184;-74
2024/04/09 07:34:10;;;;;;;22.42;7.18;;;;;;;17.66;53.05;92187.38;2028360;70;20573;-76
2024/04/09 07:36:37;;;;;;;23.45;6.88;;;;;;;17.94;53.42;92189.53;2028455;70;20156;-74
2024/04/09 07:39:03;;;;;;;28.17;7.18;;;;;;;18.02;52.97;92193.31;2028475;70;20153;-76
2024/04/09 07:41:29;;;;;;;28.25;6.55;;;;;;;17.68;52.48;92190.25;2028317;70;20456;-74
2024/04/09 07:43:55;;;;;;;17.63;6.03;;;;;;;17.74;51.92;92184.75;2028232;70;20240;-76
2024/04/09 07:46:22;;;;;;;21.42;6.55;;;;;;;17.84;52.04;92189.28;2028402;70;20319;-71
2024/04/09 07:48:48;;;;;;;18.42;6.35;;;;;;;17.86;52.23;92195.00;2028388;70;20184;-76
2024/04/09 07:51:14;;;;;;;19.83;6.40;;;;;;;18.40;51.40;92197.78;2028413;70;20176;-73
2024/04/09 07:53:39;;;;;;;13.63;5.28;;;;;;;18.74;50.77;92192.19;2028334;70;20156;-74
2024/04/09 07:56:06;;;;;;;18.73;5.28;;;;;;;18.60;49.01;92186.84;2028311;70;20285;-72
2024/04/09 07:58:31;;;;;;;19.17;5.10;;;;;;;18.15;49.35;92199.31;2028265;70;20197;-71
2024/04/09 08:00:57;;;;;;;21.63;5.60;;;;;;;18.87;48.22;92196.00;2028239;70;20180;-71
2024/04/09 08:03:22;;;;;;;14.98;5.07;;;;;;;19.18;47.13;92192.41;2028510;70;20153;-73
2024/04/09 08:05:48;;;;;;;18.98;4.70;;;;;;;19.56;45.91;92183.16;2028461;70;20533;-73
2024/04/09 08:08:14;;;;;;;19.35;4.95;;;;;;;19.58;45.12;92182.50;2025087;70;20152;-71
2024/04/09 08:10:41;;;;;;;19.02;5.18;;;;;;;19.28;44.10;92191.91;2028749;70;20159;-73
2024/04/09 08:13:07;;;;;;;14.38;4.47;;;;;;;19.83;43.75;92175.13;2028759;70;20206;-73
2024/04/09 08:15:34;;;;;;;13.02;4.47;;;;;;;20.38;43.98;92187.50;2028580;70;20160;-74
2024/04/09 08:17:59;;;;;;;18.92;4.72;;;;;;;20.56;44.56;92179.97;2028512;70;20160;-71
2024/04/09 08:20:25;;;;;;;12.90;4.03;;;;;;;21.02;42.00;92187.06;2028648;70;20216;-72
2024/04/09 08:22:51;;;;;;;18.40;4.25;;;;;;;21.22;41.85;92186.63;2028556;70;20164;-75
2024/04/09 08:25:19;;;;;;;20.70;4.68;;;;;;;21.42;41.45;92189.06;2028502;70;20191;-74
2024/04/09 08:27:45;;;;;;;16.08;4.40;;;;;;;21.51;40.48;92194.19;2028208;70;20187;-73
2024/04/09 08:30:13;;;;;;;18.40;4.53;;;;;;;21.42;39.66;92194.78;2027973;70;20213;-72
2024/04/09 08:32:39;;;;;;;17.00;4.80;;;;;;;21.65;40.04;92185.03;2028413;70;20579;-74
2024/04/09 08:35:06;;;;;;;9.57;4.32;;;;;;;21.22;41.62;92195.22;2025036;70;20159;-75
2024/04/09 08:37:32;;;;;;;19.10;4.72;;;;;;;21.18;42.38;92198.03;2028383;70;20244;-75
2024/04/09 08:40:00;;;;;;;15.43;4.63;;;;;;;21.54;42.46;92187.06;2028522;70;20180;-74
2024/04/09 08:42:26;;;;;;;14.98;4.50;;;;;;;21.98;41.54;92196.84;2028618;70;20211;-74
2024/04/09 08:44:55;;;;;;;12.80;4.53;;;;;;;22.17;39.82;92201.34;2028379;70;20183;-74
2024/04/09 08:47:25;;;;;;;13.55;3.80;;;;;;;22.40;41.15;92199.44;2028558;70;20574;-74
2024/04/09 08:49:55;;;;;;;18.75;4.32;;;;;;;22.14;41.50;92191.31;2028291;70;20188;-77
2024/04/09 08:52:26;;;;;;;22.35;5.15;;;;;;;22.71;38.74;92188.22;2028513;70;20141;-74
2024/04/09 08:54:51;;;;;;;18.00;4.07;;;;;;;23.34;37.40;92186.50;2028652;70;20240;-73
2024/04/09 08:57:21;;;;;;;14.18;4.28;;;;;;;23.72;38.17;92175.91;2024997;70;20156;-80
2024/04/09 08:59:47;;;;;;;17.35;4.40;;;;;;;23.93;37.70;92188.91;2022262;70;20141;-78
2024/04/09 09:02:15;;;;;;;12.10;3.70;;;;;;;24.73;36.77;92171.78;2028518;70;20156;-75
2024/04/09 09:04:44;;;;;;;22.58;4.45;;;;;;;24.26;35.67;92157.34;2028566;70;20159;-77
2024/04/09 09:07:18;;;;;;;14.70;3.92;;;;;;;23.70;36.53;92167.28;2028622;70;20161;-80
2024/04/09 09:09:44;;;;;;;12.30;4.10;;;;;;;24.14;37.86;92180.34;2028845;70;20175;-78
2024/04/09 09:12:11;;;;;;;17.88;4.47;;;;;;;24.22;37.51;92171.72;2028374;70;20176;-79
2024/04/09 09:14:37;;;;;;;17.88;4.25;;;;;;;24.78;38.71;92161.69;2028567;70;20224;-78
2024/04/09 09:17:03;;;;;;;15.30;4.00;;;;;;;24.43;37.84;92155.25;2028532;70;20157;-79
2024/04/09 09:19:33;;;;;;;22.98;4.45;;;;;;;24.43;36.93;92152.38;2028779;70;20156;-82
2024/04/09 09:22:12;;;;;;;20.10;4.40;;;;;;;24.23;36.93;92142.25;2028684;70;20145;-72
2024/04/09 09:24:38;;;;;;;20.13;4.30;;;;;;;24.23;37.59;92145.13;2028475;70;20152;-73
2024/04/09 09:27:07;;;;;;;16.25;4.30;;;;;;;24.80;37.33;92148.03;2028388;70;20137;-75
2024/04/09 09:29:33;;;;;;;14.18;4.40;;;;;;;24.87;36.93;92159.53;2028310;70;20583;-73
2024/04/09 09:31:59;;;;;;;21.63;3.88;;;;;;;24.13;36.96;92159.50;2024664;70;20228;-74
2024/04/09 09:34:47;;;;;;;12.35;3.47;;;;;;;25.42;35.52;92148.66;2028523;70;20151;-73
2024/04/09 09:37:13;;;;;;;15.65;3.97;;;;;;;24.99;37.04;92148.00;2028102;70;20694;-74
2024/04/09 09:39:40;;;;;;;19.15;5.07;;;;;;;26.02;36.30;92163.53;2028232;70;20153;-75
2024/04/09 09:42:11;;;;;;;17.10;4.07;;;;;;;25.43;35.83;92147.22;2028201;70;20160;-75
2024/04/09 09:44:41;;;;;;;11.93;4.07;;;;;;;25.83;34.15;92136.97;2028385;70;20148;-75
2024/04/09 09:47:07;;;;;;;18.40;3.78;;;;;;;25.54;33.97;92142.13;2028332;70;20172;-75
2024/04/09 09:49:34;;;;;;;11.10;3.35;;;;;;;25.90;33.94;92132.63;2028311;70;20160;-78
2024/04/09 09:52:01;;;;;;;13.98;3.30;;;;;;;27.23;33.48;92146.81;2028351;70;20244;-75
2024/04/09 09:54:28;;;;;;;18.15;3.83;;;;;;;26.58;32.94;92136.53;2028245;70;20152;-75
2024/04/09 09:57:05;;;;;;;15.57;3.38;;;;;;;27.57;32.50;92139.19;2028254;70;20155;-78
2024/04/09 09:59:36;;;;;;;13.77;3.25;;;;;;;28.10;31.38;92132.78;2028258;70;20682;-78
2024/04/09 10:02:04;;;;;;;13.10;3.45;;;;;;;28.11;32.43;92131.31;2028265;70;20237;-81
2024/04/09 10:04:29;;;;;;;15.05;3.60;;;;;;;27.26;32.04;92136.66;2028287;70;20156;-74
2024/04/09 10:07:04;;;;;;;21.17;3.78;;;;;;;28.69;31.56;92137.03;2028364;70;20160;-77
2024/04/09 10:09:43;;;;;;;13.70;3.75;;;;;;;28.90;32.19;92129.41;2028379;70;20157;-75
2024/04/09 10:12:21;;;;;;;16.45;3.83;;;;;;;28.13;30.55;92134.16;2028501;70;20272;-78
2024/04/09 10:14:57;;;;;;;12.25;3.90;;;;;;;30.35;28.51;92126.66;2028284;70;20160;-81
2024/04/09 10:17:27;;;;;;;17.83;3.70;;;;;;;29.83;28.25;92117.59;2028315;70;20152;-75
2024/04/09 10:19:53;;;;;;;20.92;5.65;;;;;;;29.88;27.91;92124.75;2028371;70;20209;-75
2024/04/09 10:22:20;;;;;;;12.48;3.30;;;;;;;30.51;28.20;92114.66;2028399;70;20247;-74
2024/04/09 10:24:45;;;;;;;13.00;3.40;;;;;;;31.38;28.71;92117.66;2028349;70;20533;-73
2024/04/09 10:27:13;;;;;;;19.05;3.38;;;;;;;31.44;28.18;92119.69;2024700;70;20164;-82
2024/04/09 10:29:50;;;;;;;16.83;3.35;;;;;;;32.50;27.11;92122.50;2028193;70;20168;-77
2024/04/09 10:32:24;;;;;;;18.30;3.28;;;;;;;31.32;26.71;92135.25;2027644;70;20632;-75
2024/04/09 10:34:51;;;;;;;17.40;3.20;;;;;;;30.14;26.64;92120.59;2027379;70;20180;-77
2024/04/09 10:37:17;;;;;;;27.75;5.30;;;;;;;30.88;26.33;92108.75;2028210;70;20137;-80
2024/04/09 10:39:43;;;;;;;13.52;3.17;;;;;;;33.04;24.08;92104.09;2027981;70;20200;-71
2024/04/09 10:42:09;;;;;;;19.88;3.40;;;;;;;33.33;23.65;92124.25;2028077;70;20243;-79
2024/04/09 10:44:34;;;;;;;16.95;3.33;;;;;;;32.83;23.20;92104.00;2028015;70;20236;-79
2024/04/09 10:47:00;;;;;;;19.30;3.17;;;;;;;34.79;22.18;92117.50;2028386;70;20571;-81
2024/04/09 10:49:26;;;;;;;18.80;3.40;;;;;;;34.96;23.37;92117.53;2028391;70;20174;-81
2024/04/09 10:51:52;;;;;;;18.13;3.10;;;;;;;36.08;21.34;92104.78;2028261;70;20229;-75
2024/04/09 10:54:19;;;;;;;14.02;3.30;;;;;;;34.88;21.61;92101.06;2025003;70;20180;-76
2024/04/09 10:56:45;;;;;;;16.48;3.03;;;;;;;34.99;21.01;92110.16;2028228;70;20222;-75
2024/04/09 10:59:14;;;;;;;15.45;3.10;;;;;;;36.40;20.70;92105.53;2028337;70;20184;-76
2024/04/09 11:01:41;;;;;;;23.40;3.10;;;;;;;34.97;20.98;92095.63;2027860;70;20226;-77
2024/04/09 11:04:07;;;;;;;17.80;3.38;;;;;;;37.08;21.33;92096.53;2024668;70;20159;-79
2024/04/09 11:06:36;;;;;;;17.60;3.40;;;;;;;35.53;23.69;92086.00;2028209;70;20149;-79
2024/04/09 11:09:01;;;;;;;22.33;3.80;;;;;;;34.21;21.30;92074.44;2028461;70;20259;-78
2024/04/09 11:11:27;;;;;;;24.95;3.55;;;;;;;34.45;21.97;92078.63;2028495;70;20178;-80
2024/04/09 11:13:54;;;;;;;22.15;3.10;;;;;;;34.06;23.06;92077.91;2028499;70;20209;-79
2024/04/09 11:16:20;;;;;;;18.85;3.30;;;;;;;33.28;24.16;92070.47;2028587;70;20145;-77
2024/04/09 11:19:01;;;;;;;18.45;3.30;;;;;;;32.71;23.66;92066.50;2028574;70;20269;-79
2024/04/09 11:21:28;;;;;;;24.15;3.38;;;;;;;33.13;23.21;92070.97;2028375;70;20636;-78
2024/04/09 11:23:55;;;;;;;23.10;3.33;;;;;;;35.55;23.22;92063.19;2028576;70;20240;-80